Time;durP1;ratioP1;P1;durP2;ratioP2;P2;SDS_P1;SDS_P2;PMS_P1;PMS_P2;Temp;Humidity;BMP_temperature;BMP_pressure;BME280_temperature;BME280_humidity;BME280_pressure;Samples;Min_cycle;Max_cycle;Signal;HPM_P1;HPM_P2
2023/12/04 00:00:21;;;;;;;9.50;6.60;;;;;;;16.39;37.35;93591.28;5019365;28;20059;-90
2023/12/04 00:02:47;;;;;;;8.23;6.20;;;;;;;16.39;37.96;93583.81;4987759;28;20025;-90
2023/12/04 00:05:12;;;;;;;8.55;6.05;;;;;;;16.43;37.63;93589.06;5049424;28;20386;-90
2023/12/04 00:07:38;;;;;;;10.77;6.82;;;;;;;16.38;37.35;93590.53;5040718;28;20474;-90
2023/12/04 00:10:04;;;;;;;9.48;5.90;;;;;;;16.37;37.92;93582.81;5058522;28;20020;-90
2023/12/04 00:12:29;;;;;;;8.45;5.95;;;;;;;16.42;37.73;93577.38;5059454;28;20521;-90
2023/12/04 00:14:54;;;;;;;9.32;6.53;;;;;;;16.35;37.78;93571.66;5042554;28;20028;-91
2023/12/04 00:17:20;;;;;;;8.65;6.05;;;;;;;16.31;37.87;93569.16;5042100;28;20025;-89
2023/12/04 00:19:45;;;;;;;7.32;5.32;;;;;;;16.36;37.30;93564.97;5058269;28;20028;-89
2023/12/04 00:22:11;;;;;;;8.02;6.70;;;;;;;16.35;38.05;93572.41;5041703;28;20032;-90
2023/12/04 00:24:36;;;;;;;10.38;6.68;;;;;;;16.38;37.75;93565.97;5041084;28;20048;-92
2023/12/04 00:27:02;;;;;;;8.07;5.95;;;;;;;16.35;37.96;93569.69;5040769;28;20039;-90
2023/12/04 00:29:27;;;;;;;9.23;5.82;;;;;;;16.35;37.52;93569.69;5026185;28;20466;-90
2023/12/04 00:31:53;;;;;;;9.30;6.32;;;;;;;16.38;37.71;93563.25;5041211;28;20338;-92
2023/12/04 00:34:18;;;;;;;7.32;5.05;;;;;;;16.41;36.96;93567.72;5042019;28;20102;-90
2023/12/04 00:36:43;;;;;;;8.15;6.20;;;;;;;16.35;37.92;93566.94;5041964;28;20043;-92
2023/12/04 00:39:09;;;;;;;7.85;5.55;;;;;;;16.38;37.58;93576.88;5042203;28;20020;-90
2023/12/04 00:41:34;;;;;;;7.72;5.53;;;;;;;16.33;38.12;93574.88;5059366;28;20043;-90
2023/12/04 00:44:00;;;;;;;9.20;5.82;;;;;;;16.38;38.19;93579.63;5043896;28;20016;-92
2023/12/04 00:46:25;;;;;;;7.28;5.15;;;;;;;16.39;37.64;93569.44;5058841;28;20097;-90
2023/12/04 00:48:51;;;;;;;7.60;5.40;;;;;;;16.38;37.52;93573.41;5055966;28;20467;-91
2023/12/04 00:51:16;;;;;;;8.75;6.15;;;;;;;16.41;37.80;93575.16;5043878;28;20035;-91
2023/12/04 00:53:42;;;;;;;6.95;5.05;;;;;;;16.41;37.55;93572.44;5040556;28;20028;-90
2023/12/04 00:56:08;;;;;;;8.02;5.20;;;;;;;16.35;37.40;93568.94;5042207;28;20035;-90
2023/12/04 00:58:33;;;;;;;6.95;5.03;;;;;;;16.35;37.07;93566.94;5058020;28;20078;-90
2023/12/04 01:00:59;;;;;;;7.28;5.50;;;;;;;16.35;37.63;93564.22;5039393;28;20399;-89
2023/12/04 01:03:26;;;;;;;6.03;5.15;;;;;;;16.36;37.59;93571.16;5041814;28;20150;-92
2023/12/04 01:05:51;;;;;;;7.43;5.38;;;;;;;16.39;37.51;93570.19;5040037;28;20232;-90
2023/12/04 01:08:17;;;;;;;8.50;5.30;;;;;;;16.39;37.92;93574.91;5039507;28;20652;-90
2023/12/04 01:10:43;;;;;;;6.68;5.07;;;;;;;16.36;37.69;93565.72;5042206;28;21913;-91
2023/12/04 01:13:08;;;;;;;7.10;5.05;;;;;;;16.38;37.68;93563.25;5035676;28;20052;-90
2023/12/04 01:15:33;;;;;;;5.57;4.97;;;;;;;16.34;37.84;93565.47;5042094;28;20506;-90
2023/12/04 01:18:00;;;;;;;8.00;5.43;;;;;;;16.36;37.73;93545.88;5021125;28;20047;-90
2023/12/04 01:20:25;;;;;;;7.00;4.88;;;;;;;16.35;37.85;93563.47;5039825;28;20059;-91
2023/12/04 01:22:51;;;;;;;6.55;4.90;;;;;;;16.37;37.12;93559.03;5056542;28;20527;-90
2023/12/04 01:25:16;;;;;;;7.75;4.60;;;;;;;16.36;37.83;93545.88;5040324;28;20112;-91
2023/12/04 01:27:42;;;;;;;6.82;4.88;;;;;;;16.35;37.68;93544.38;5038901;28;20020;-90
2023/12/04 01:30:08;;;;;;;6.63;4.50;;;;;;;16.39;37.54;93542.91;5023311;28;20486;-90
2023/12/04 01:32:34;;;;;;;5.53;4.30;;;;;;;16.40;37.01;93536.22;5024654;28;20263;-90
2023/12/04 01:35:00;;;;;;;5.50;4.35;;;;;;;16.36;37.83;93535.72;5042208;28;20031;-90
2023/12/04 01:37:25;;;;;;;6.63;4.43;;;;;;;16.39;37.57;93542.16;5040744;28;20501;-91
2023/12/04 01:39:50;;;;;;;6.15;4.47;;;;;;;16.39;37.31;93537.44;5033788;28;20122;-92
2023/12/04 01:42:16;;;;;;;5.95;4.20;;;;;;;16.34;37.53;93534.72;5042400;28;20409;-91
2023/12/04 01:44:41;;;;;;;7.72;4.57;;;;;;;16.34;37.87;93526.53;5039281;28;20089;-92
2023/12/04 01:47:07;;;;;;;7.10;4.20;;;;;;;16.40;37.05;93522.56;5040310;28;20429;-91
2023/12/04 01:49:32;;;;;;;5.60;4.03;;;;;;;16.33;37.38;93525.03;5057411;28;20029;-89
2023/12/04 01:51:58;;;;;;;5.80;4.32;;;;;;;16.37;37.26;93523.56;5040767;28;20399;-89
2023/12/04 01:54:23;;;;;;;6.43;4.63;;;;;;;16.36;37.69;93516.59;5041382;28;20032;-90
2023/12/04 01:56:48;;;;;;;5.25;3.88;;;;;;;16.34;37.07;93521.81;5015666;28;20032;-90
2023/12/04 01:59:14;;;;;;;5.55;4.20;;;;;;;16.34;37.68;93518.34;5039780;28;20089;-93
2023/12/04 02:01:40;;;;;;;5.30;4.20;;;;;;;16.31;37.89;93524.78;5038646;28;20047;-91
2023/12/04 02:04:05;;;;;;;5.25;3.78;;;;;;;16.36;37.32;93516.59;5058992;28;20029;-90
2023/12/04 02:06:30;;;;;;;6.28;4.25;;;;;;;16.36;37.23;93516.59;5021686;28;20021;-90
2023/12/04 02:08:56;;;;;;;4.78;3.70;;;;;;;16.41;37.33;93506.94;5053905;28;20433;-90
2023/12/04 02:11:21;;;;;;;5.68;4.28;;;;;;;16.37;37.86;93506.44;5038611;28;20035;-92
2023/12/04 02:13:47;;;;;;;4.93;3.65;;;;;;;16.38;37.54;93502.47;5057499;28;20320;-90
2023/12/04 02:16:12;;;;;;;4.53;3.58;;;;;;;16.41;37.28;93498.75;5041184;28;20033;-93
2023/12/04 02:18:38;;;;;;;4.18;3.58;;;;;;;16.41;37.36;93498.75;5039342;28;20473;-93
2023/12/04 02:21:03;;;;;;;3.97;3.25;;;;;;;16.36;37.21;93499.50;5040027;28;20051;-90
2023/12/04 02:23:29;;;;;;;4.88;3.70;;;;;;;16.36;37.16;93494.78;5041021;28;20044;-89
2023/12/04 02:26:09;;;;;;;6.00;3.53;;;;;;;16.36;37.65;93496.75;5054840;28;20622;-89
2023/12/04 02:28:34;;;;;;;5.10;3.67;;;;;;;16.39;37.38;93487.59;5055400;28;20418;-90
2023/12/04 02:31:00;;;;;;;5.13;3.70;;;;;;;16.35;37.71;93481.63;5038622;28;20040;-90
2023/12/04 02:33:25;;;;;;;5.82;4.25;;;;;;;16.35;37.21;93473.44;5039574;28;20116;-91
2023/12/04 02:35:50;;;;;;;5.53;3.58;;;;;;;16.40;37.15;93470.00;5056232;28;20058;-89
2023/12/04 02:38:16;;;;;;;4.47;3.33;;;;;;;16.36;37.20;93472.97;5040844;28;20039;-90
2023/12/04 02:40:41;;;;;;;4.53;3.45;;;;;;;16.32;37.60;93469.72;5038608;28;20032;-90
2023/12/04 02:43:07;;;;;;;4.85;3.75;;;;;;;16.37;37.29;93468.25;5039785;28;20510;-92
2023/12/04 02:45:32;;;;;;;6.32;4.18;;;;;;;16.38;37.56;93462.28;5058993;28;20028;-90
2023/12/04 02:47:57;;;;;;;3.97;3.40;;;;;;;16.38;37.36;93451.38;5038274;28;20032;-90
2023/12/04 02:50:23;;;;;;;5.93;3.78;;;;;;;16.39;37.38;93457.59;5038069;28;20037;-90
2023/12/04 02:52:48;;;;;;;4.25;3.25;;;;;;;16.40;37.37;93450.88;5037738;28;20445;-90
2023/12/04 02:55:14;;;;;;;3.50;2.72;;;;;;;16.41;37.02;93449.66;5042142;28;20032;-92
2023/12/04 02:57:39;;;;;;;4.85;3.75;;;;;;;16.39;37.81;93443.94;5037424;28;20024;-92
2023/12/04 03:00:06;;;;;;;4.22;3.05;;;;;;;16.36;37.73;93439.47;5034780;28;20012;-90
2023/12/04 03:02:31;;;;;;;4.57;3.40;;;;;;;16.36;37.95;93437.50;5038210;28;20028;-90
2023/12/04 03:04:57;;;;;;;3.40;3.08;;;;;;;16.35;37.56;93432.53;5057944;28;20031;-92
2023/12/04 03:07:24;;;;;;;4.90;3.38;;;;;;;16.33;37.62;93426.81;5039021;28;20033;-90
2023/12/04 03:09:49;;;;;;;4.45;2.80;;;;;;;16.35;37.30;93416.16;5039388;28;20071;-92
2023/12/04 03:12:15;;;;;;;3.75;3.22;;;;;;;16.38;37.75;93424.09;5040838;28;20115;-90
2023/12/04 03:14:40;;;;;;;5.13;3.15;;;;;;;16.34;37.14;93415.41;5040260;28;20029;-90
2023/12/04 03:17:06;;;;;;;3.63;2.80;;;;;;;16.35;37.28;93410.72;5039728;28;20033;-91
2023/12/04 03:19:31;;;;;;;3.88;2.92;;;;;;;16.33;37.37;93413.94;5051064;28;20037;-89
2023/12/04 03:21:57;;;;;;;6.25;3.53;;;;;;;16.31;37.56;93410.94;5055114;28;20660;-89
2023/12/04 03:24:22;;;;;;;3.38;2.75;;;;;;;16.34;37.13;93409.97;5057402;28;20052;-89
2023/12/04 03:26:47;;;;;;;10.75;3.78;;;;;;;16.27;38.11;93401.53;5039022;28;20040;-91
2023/12/04 03:29:13;;;;;;;3.42;2.65;;;;;;;16.33;36.99;93394.84;5040808;28;20024;-93
2023/12/04 03:31:38;;;;;;;3.20;2.65;;;;;;;16.39;36.98;93401.03;5037891;28;20058;-91
2023/12/04 03:34:04;;;;;;;3.80;2.97;;;;;;;16.38;37.05;93405.00;5041920;28;20028;-91
2023/12/04 03:36:29;;;;;;;4.70;2.88;;;;;;;16.31;37.59;93394.59;5034820;28;20036;-90
2023/12/04 03:38:54;;;;;;;5.00;3.35;;;;;;;16.32;37.81;93392.59;4998882;28;20087;-90
2023/12/04 03:41:22;;;;;;;3.63;3.00;;;;;;;16.31;37.54;93388.38;5019772;28;20068;-90
2023/12/04 03:43:47;;;;;;;3.40;2.63;;;;;;;16.34;37.96;93392.84;5001914;28;20037;-91
2023/12/04 03:46:12;;;;;;;4.13;3.25;;;;;;;16.40;37.22;93382.69;5001066;28;20100;-92
2023/12/04 03:48:38;;;;;;;4.28;3.10;;;;;;;16.35;37.36;93378.72;5002091;28;20024;-91
2023/12/04 03:51:04;;;;;;;3.83;2.58;;;;;;;16.32;37.55;93376.97;5003416;28;20045;-91
2023/12/04 03:53:30;;;;;;;4.40;2.80;;;;;;;16.31;37.81;93370.03;4989213;28;20110;-90
2023/12/04 03:55:58;;;;;;;3.33;2.38;;;;;;;16.34;37.34;93371.78;4988366;28;20549;-90
2023/12/04 03:58:23;;;;;;;3.63;2.95;;;;;;;16.35;37.48;93376.00;5004670;28;20120;-92
2023/12/04 04:00:49;;;;;;;3.38;2.63;;;;;;;16.42;36.91;93372.03;5005899;28;20054;-90
2023/12/04 04:03:14;;;;;;;3.67;2.58;;;;;;;16.35;37.67;93367.06;5002807;28;20041;-92
2023/12/04 04:05:40;;;;;;;3.97;2.58;;;;;;;16.37;37.46;93367.31;4986238;28;20120;-90
2023/12/04 04:08:07;;;;;;;3.92;2.72;;;;;;;16.34;37.51;93362.84;5019489;28;20398;-90
2023/12/04 04:10:32;;;;;;;4.60;2.80;;;;;;;16.29;37.80;93366.31;5040053;28;20442;-90
2023/12/04 04:12:58;;;;;;;3.35;2.55;;;;;;;16.30;37.82;93365.06;5022086;28;20056;-91
2023/12/04 04:15:23;;;;;;;3.85;2.80;;;;;;;16.33;37.39;93353.91;4990243;28;20040;-90
2023/12/04 04:17:49;;;;;;;3.72;2.60;;;;;;;16.35;36.87;93351.44;5002552;28;20037;-92
2023/12/04 04:20:14;;;;;;;2.85;2.45;;;;;;;16.30;37.26;93351.44;5002968;28;20028;-89
2023/12/04 04:22:40;;;;;;;4.22;2.60;;;;;;;16.30;37.59;93352.19;5019419;28;20131;-89
2023/12/04 04:25:06;;;;;;;2.80;2.10;;;;;;;16.31;37.41;93347.47;5004230;28;20041;-91
2023/12/04 04:27:32;;;;;;;2.83;2.40;;;;;;;16.34;36.98;93341.75;4987681;28;20048;-90
2023/12/04 04:29:57;;;;;;;2.75;2.20;;;;;;;16.37;37.40;93331.84;5005211;28;20029;-93
2023/12/04 04:32:23;;;;;;;3.08;2.20;;;;;;;16.38;36.98;93338.78;5022643;28;20438;-91
2023/12/04 04:34:48;;;;;;;2.80;2.40;;;;;;;16.29;37.48;93331.59;5019248;28;20041;-90
2023/12/04 04:37:13;;;;;;;3.13;2.70;;;;;;;16.27;36.94;93334.09;5005921;28;20054;-93
2023/12/04 04:39:42;;;;;;;3.60;2.75;;;;;;;16.27;37.74;93339.53;5002677;28;20420;-91
2023/12/04 04:42:07;;;;;;;4.60;2.78;;;;;;;16.30;37.41;93332.34;5006075;28;20028;-89
2023/12/04 04:44:32;;;;;;;12.13;7.20;;;;;;;16.33;37.41;93328.63;5049929;28;20043;-88
2023/12/04 04:46:58;;;;;;;8.32;3.83;;;;;;;16.37;37.58;93326.38;5060807;28;20491;-90
2023/12/04 04:49:23;;;;;;;19.80;11.68;;;;;;;16.26;38.22;93327.13;4993575;28;20221;-89
2023/12/04 04:51:49;;;;;;;291.48;98.90;;;;;;;16.31;38.13;93322.91;5019366;28;21123;-92
2023/12/04 04:54:14;;;;;;;243.60;74.95;;;;;;;16.29;37.46;93325.41;5021639;28;20045;-91
2023/12/04 04:56:41;;;;;;;26.88;12.05;;;;;;;16.30;37.29;93314.00;5007198;28;20316;-89
2023/12/04 04:59:06;;;;;;;60.58;27.23;;;;;;;16.18;38.06;93312.53;5000860;28;20039;-91
2023/12/04 05:01:32;;;;;;;64.90;37.53;;;;;;;16.16;35.10;93315.03;4987104;28;20327;-91
2023/12/04 05:03:57;;;;;;;43.75;23.85;;;;;;;16.10;37.06;93308.81;5006008;28;20044;-89
2023/12/04 05:06:23;;;;;;;83.97;45.25;;;;;;;16.07;37.23;93318.75;5006526;28;20402;-90
2023/12/04 05:08:52;;;;;;;80.80;43.78;;;;;;;16.16;37.13;93320.47;5002342;28;20043;-88
2023/12/04 05:11:17;;;;;;;84.70;44.85;;;;;;;16.13;37.51;93324.19;5020064;28;20083;-91
2023/12/04 05:13:44;;;;;;;67.90;35.55;;;;;;;16.25;37.08;93314.75;4997227;28;20180;-92
2023/12/04 05:16:10;;;;;;;63.33;33.47;;;;;;;16.29;36.93;93315.22;5009469;28;20056;-89
2023/12/04 05:18:35;;;;;;;56.72;31.20;;;;;;;16.27;36.43;93311.50;5015502;28;20471;-90
2023/12/04 05:21:01;;;;;;;73.68;39.85;;;;;;;16.25;36.79;93314.00;5003810;28;20048;-90
2023/12/04 05:23:26;;;;;;;73.45;36.55;;;;;;;16.25;36.71;93306.56;4987252;28;20470;-89
2023/12/04 05:25:52;;;;;;;173.38;89.22;;;;;;;16.20;37.34;93298.41;5030058;28;21291;-86
2023/12/04 05:28:17;;;;;;;158.90;82.13;;;;;;;16.14;37.60;93297.66;5022687;28;20040;-90
2023/12/04 05:30:43;;;;;;;142.98;74.70;;;;;;;16.17;37.59;93293.94;5032640;28;20032;-88
2023/12/04 05:33:08;;;;;;;144.68;68.10;;;;;;;16.21;37.52;93297.16;5038576;28;20071;-87
2023/12/04 05:35:34;;;;;;;135.77;63.70;;;;;;;16.27;37.91;93271.34;5032068;28;20535;-87
2023/12/04 05:38:00;;;;;;;144.05;60.25;;;;;;;16.25;36.45;93284.75;5035952;28;20033;-90
2023/12/04 05:40:25;;;;;;;138.15;61.28;;;;;;;16.18;36.53;93276.34;5038087;28;20478;-88
2023/12/04 05:42:51;;;;;;;133.65;64.13;;;;;;;16.17;36.61;93275.59;5043438;28;20087;-90
2023/12/04 05:45:16;;;;;;;129.07;56.67;;;;;;;16.17;35.63;93277.59;5055919;28;20353;-89
2023/12/04 05:47:42;;;;;;;111.97;47.88;;;;;;;16.12;35.60;93276.34;5035813;28;20434;-89
2023/12/04 05:50:08;;;;;;;121.18;53.25;;;;;;;16.08;35.79;93273.13;5061613;28;20040;-88
2023/12/04 05:52:33;;;;;;;103.15;44.88;;;;;;;16.05;34.84;93276.84;5063205;28;20121;-89
2023/12/04 05:54:59;;;;;;;101.45;45.95;;;;;;;16.04;35.34;93267.94;4997823;28;20511;-87
2023/12/04 05:57:24;;;;;;;127.03;55.00;;;;;;;16.11;36.13;93259.25;4999750;28;20212;-85
2023/12/04 05:59:50;;;;;;;117.50;56.90;;;;;;;16.13;36.68;93256.03;4993950;28;20068;-89
2023/12/04 06:02:15;;;;;;;112.95;52.50;;;;;;;16.08;36.47;93254.78;4987706;28;20033;-90
2023/12/04 06:04:43;;;;;;;185.95;88.35;;;;;;;16.07;36.53;93249.81;4983566;28;20037;-93
2023/12/04 06:07:09;;;;;;;189.57;79.18;;;;;;;16.11;36.42;93250.31;4972670;28;20148;-92
2023/12/04 06:09:36;;;;;;;103.22;45.58;;;;;;;16.07;35.08;93247.09;4997046;28;20127;-90
2023/12/04 06:12:07;;;;;;;109.13;48.42;;;;;;;16.04;35.42;93251.56;4980600;28;20041;-88
2023/12/04 06:14:34;;;;;;;127.45;51.42;;;;;;;16.01;35.38;93249.13;5011420;28;20100;-89
2023/12/04 06:17:00;;;;;;;120.18;55.30;;;;;;;16.03;36.26;93250.06;4982740;28;20028;-88
2023/12/04 06:19:27;;;;;;;115.15;54.33;;;;;;;16.11;35.99;93248.34;5002346;28;20039;-90
2023/12/04 06:21:54;;;;;;;153.63;56.20;;;;;;;16.19;35.83;93248.56;5007110;28;20270;-89
2023/12/04 06:24:24;;;;;;;132.02;55.72;;;;;;;16.16;36.42;93246.09;4995209;28;20053;-88
2023/12/04 06:26:49;;;;;;;97.55;41.72;;;;;;;16.06;34.42;93251.06;5015993;28;20044;-87
2023/12/04 06:29:15;;;;;;;83.40;32.13;;;;;;;15.88;32.86;93246.16;5052867;28;20040;-87
2023/12/04 06:31:41;;;;;;;72.32;30.63;;;;;;;15.88;32.53;93235.25;5048793;28;20020;-85
2023/12/04 06:34:06;;;;;;;101.25;32.53;;;;;;;15.99;33.47;93227.06;5034665;28;20047;-85
2023/12/04 06:36:33;;;;;;;128.90;42.90;;;;;;;15.96;34.50;93233.50;5054521;28;20031;-85
2023/12/04 06:38:59;;;;;;;113.57;47.22;;;;;;;16.01;34.98;93240.94;4993859;28;20037;-86
2023/12/04 06:41:24;;;;;;;114.05;44.80;;;;;;;16.11;35.62;93231.97;5011567;28;20631;-85
2023/12/04 06:43:50;;;;;;;111.70;47.45;;;;;;;16.10;35.66;93232.47;5004240;28;20060;-86
2023/12/04 06:46:16;;;;;;;116.25;51.60;;;;;;;16.13;35.95;93231.47;5000604;28;20056;-88
2023/12/04 06:48:42;;;;;;;95.60;47.55;;;;;;;16.13;36.16;93228.75;4997774;28;20063;-86
2023/12/04 06:51:08;;;;;;;174.82;69.05;;;;;;;16.07;36.08;93226.03;4984438;28;20131;-87
2023/12/04 06:54:03;;;;;;;107.63;48.08;;;;;;;16.16;35.73;93222.31;5022277;28;20048;-90
2023/12/04 06:56:28;;;;;;;157.50;62.25;;;;;;;16.17;35.82;93217.59;4940781;28;20589;-86
2023/12/04 06:58:54;;;;;;;142.40;60.75;;;;;;;16.13;35.95;93215.13;4934490;28;20051;-87
2023/12/04 07:01:19;;;;;;;140.05;64.72;;;;;;;16.20;35.69;93219.31;4937787;28;20047;-87
2023/12/04 07:03:45;;;;;;;134.45;61.40;;;;;;;16.18;36.13;93210.88;4941627;28;20089;-86
2023/12/04 07:06:10;;;;;;;126.78;54.88;;;;;;;16.20;35.95;93202.94;4919015;28;20039;-87
2023/12/04 07:08:36;;;;;;;121.82;58.55;;;;;;;16.30;36.56;93206.88;4919654;28;20051;-86
2023/12/04 07:11:02;;;;;;;110.47;53.50;;;;;;;16.31;35.87;93197.44;4949381;28;20038;-88
2023/12/04 07:13:28;;;;;;;108.53;55.13;;;;;;;16.27;36.08;93199.69;4956033;28;20034;-88
2023/12/04 07:15:54;;;;;;;107.10;52.50;;;;;;;16.29;35.94;93191.75;4968244;28;20631;-89
2023/12/04 07:18:22;;;;;;;114.00;51.70;;;;;;;16.22;35.92;93179.41;4953348;28;20032;-90
2023/12/04 07:20:48;;;;;;;116.18;54.15;;;;;;;16.18;36.36;93187.09;4936113;28;20097;-86
2023/12/04 07:23:13;;;;;;;86.50;38.17;;;;;;;16.15;33.18;93190.06;4926298;28;20331;-86
2023/12/04 07:25:39;;;;;;;57.00;26.90;;;;;;;15.98;32.18;93176.50;4915266;28;20039;-87
2023/12/04 07:28:04;;;;;;;72.25;31.08;;;;;;;16.06;33.20;93180.19;4914082;28;20053;-89
2023/12/04 07:30:30;;;;;;;115.45;55.80;;;;;;;15.98;33.80;93171.06;4941524;28;20034;-88
2023/12/04 07:32:55;;;;;;;151.32;62.13;;;;;;;16.11;34.51;93165.78;4958358;28;21126;-87
2023/12/04 07:35:21;;;;;;;114.63;54.20;;;;;;;16.18;34.88;93167.25;4985403;28;20039;-87
2023/12/04 07:37:47;;;;;;;99.95;50.60;;;;;;;16.17;35.43;93155.59;5034507;28;20509;-87
2023/12/04 07:40:12;;;;;;;129.32;54.50;;;;;;;16.16;35.60;93156.84;5009553;28;20027;-88
2023/12/04 07:42:38;;;;;;;88.40;45.08;;;;;;;16.19;36.12;93155.09;4995951;28;20354;-88
2023/12/04 07:45:04;;;;;;;117.95;47.22;;;;;;;16.20;36.06;93149.16;4983188;28;20117;-88
2023/12/04 07:47:30;;;;;;;102.32;43.67;;;;;;;16.29;36.20;93142.66;4992731;28;20093;-87
2023/12/04 07:49:55;;;;;;;110.57;47.60;;;;;;;16.24;35.81;93141.44;4980385;28;21337;-89
2023/12/04 07:52:22;;;;;;;115.32;47.20;;;;;;;16.26;36.01;93138.94;4984562;28;20036;-89
2023/12/04 07:54:47;;;;;;;126.47;49.58;;;;;;;16.28;35.91;93138.44;5000491;28;20056;-91
2023/12/04 07:57:13;;;;;;;123.18;47.53;;;;;;;16.25;35.75;93128.53;5003451;28;20025;-90
2023/12/04 07:59:38;;;;;;;112.93;47.13;;;;;;;16.28;35.83;93127.53;4994047;28;20061;-88
2023/12/04 08:02:05;;;;;;;133.35;49.28;;;;;;;16.31;36.14;93131.97;4993895;28;21172;-91
2023/12/04 08:04:30;;;;;;;127.70;45.38;;;;;;;16.37;35.59;93136.16;4995772;28;20111;-90
2023/12/04 08:06:56;;;;;;;123.25;48.88;;;;;;;16.37;35.73;93132.69;4991092;28;20049;-87
2023/12/04 08:09:23;;;;;;;128.77;50.05;;;;;;;16.36;36.09;93123.03;5001394;28;20080;-90
2023/12/04 08:11:48;;;;;;;116.35;43.60;;;;;;;16.42;35.66;93123.75;4935824;28;21735;-89
2023/12/04 08:14:16;;;;;;;89.95;32.45;;;;;;;16.35;34.03;93102.47;4953328;28;20741;-88
2023/12/04 08:16:43;;;;;;;108.95;41.63;;;;;;;16.27;34.83;93110.41;4969692;28;20057;-87
2023/12/04 08:19:08;;;;;;;108.93;43.13;;;;;;;16.29;34.86;93105.22;4991437;28;20041;-87
2023/12/04 08:21:34;;;;;;;162.65;58.75;;;;;;;16.31;35.43;93093.78;4967861;28;20040;-85
2023/12/04 08:23:59;;;;;;;115.72;47.53;;;;;;;16.38;35.71;93094.00;4954780;28;20049;-87
2023/12/04 08:26:25;;;;;;;135.20;59.00;;;;;;;16.39;35.80;93095.50;4949746;28;20555;-87
2023/12/04 08:28:53;;;;;;;124.55;52.63;;;;;;;16.43;35.61;93087.78;4924483;28;20545;-87
2023/12/04 08:31:19;;;;;;;127.68;58.33;;;;;;;16.46;35.94;93086.00;4902010;28;20154;-88
2023/12/04 08:33:47;;;;;;;135.10;62.95;;;;;;;16.43;35.91;93085.06;4867472;28;20081;-88
2023/12/04 08:36:13;;;;;;;146.88;64.07;;;;;;;16.41;35.86;93081.34;4854007;28;20098;-89
2023/12/04 08:38:39;;;;;;;125.30;54.58;;;;;;;16.38;36.11;93074.91;4869841;28;20207;-92
2023/12/04 08:41:05;;;;;;;184.85;75.82;;;;;;;16.43;35.91;93082.31;4853179;28;20050;-88
2023/12/04 08:43:31;;;;;;;182.18;72.50;;;;;;;16.44;35.82;93077.63;4883738;28;20035;-88
2023/12/04 08:45:56;;;;;;;145.00;70.07;;;;;;;16.48;36.12;93066.41;4872836;28;20039;-89
2023/12/04 08:48:22;;;;;;;148.65;69.82;;;;;;;16.48;35.88;93075.34;4909844;28;20047;-89
2023/12/04 08:50:48;;;;;;;168.45;81.07;;;;;;;16.47;36.35;93068.38;4897502;28;20091;-90
2023/12/04 08:53:13;;;;;;;143.23;69.78;;;;;;;16.47;36.29;93073.84;4885925;28;21206;-89
2023/12/04 08:55:38;;;;;;;137.07;69.45;;;;;;;16.56;36.25;93065.38;4916688;28;22171;-90
2023/12/04 08:58:04;;;;;;;154.05;70.68;;;;;;;16.56;36.51;93064.63;4911073;28;20081;-88
2023/12/04 09:00:30;;;;;;;119.03;54.05;;;;;;;16.43;34.99;93063.22;4921992;28;20035;-90
2023/12/04 09:02:57;;;;;;;114.55;50.40;;;;;;;16.44;34.82;93061.25;4942193;28;20040;-90
2023/12/04 09:05:22;;;;;;;114.68;55.80;;;;;;;16.34;35.23;93063.53;4982664;28;20559;-91
2023/12/04 09:07:48;;;;;;;126.47;55.35;;;;;;;16.44;35.24;93047.59;4990708;28;20059;-87
2023/12/04 09:10:13;;;;;;;143.23;62.40;;;;;;;16.48;35.61;93052.75;4970052;28;20037;-87
2023/12/04 09:12:40;;;;;;;134.93;59.00;;;;;;;16.54;35.69;93042.56;4987536;28;20480;-89
2023/12/04 09:15:06;;;;;;;125.53;55.85;;;;;;;16.51;35.84;93038.13;4977691;28;20048;-88
2023/12/04 09:17:31;;;;;;;122.70;54.15;;;;;;;16.56;36.03;93032.63;4981153;28;21197;-87
2023/12/04 09:19:57;;;;;;;140.35;57.67;;;;;;;16.56;36.08;93027.16;4994013;28;20055;-88
2023/12/04 09:22:22;;;;;;;118.63;52.28;;;;;;;16.54;36.09;93032.38;4993610;28;20041;-89
2023/12/04 09:24:48;;;;;;;106.30;48.53;;;;;;;16.52;36.10;93039.59;4983818;28;20121;-88
2023/12/04 09:27:13;;;;;;;94.30;48.78;;;;;;;16.50;36.05;93031.91;4989525;28;20789;-87
2023/12/04 09:29:40;;;;;;;109.85;52.38;;;;;;;16.47;36.06;93032.94;4967829;28;20133;-87
2023/12/04 09:32:06;;;;;;;135.95;61.20;;;;;;;16.52;36.38;93018.50;4987448;28;21284;-88
2023/12/04 09:34:31;;;;;;;121.65;57.25;;;;;;;16.67;36.23;93029.81;5003609;28;21450;-88
2023/12/04 09:36:58;;;;;;;116.38;55.15;;;;;;;16.60;36.16;93024.91;4991419;28;20064;-88
2023/12/04 09:39:23;;;;;;;124.15;58.35;;;;;;;16.53;36.05;93022.72;5000624;28;20045;-87
2023/12/04 09:41:50;;;;;;;106.10;54.00;;;;;;;16.61;36.20;93015.47;4988834;28;20029;-87
2023/12/04 09:44:15;;;;;;;115.43;56.08;;;;;;;16.62;36.34;93022.41;4980476;28;20048;-85
2023/12/04 09:46:41;;;;;;;120.82;60.40;;;;;;;16.63;36.33;93015.72;5014199;28;20114;-88
2023/12/04 09:49:07;;;;;;;123.55;55.90;;;;;;;16.67;36.29;93016.19;4985713;28;20041;-90
2023/12/04 09:51:32;;;;;;;116.78;58.58;;;;;;;16.56;36.35;93010.78;5002558;28;20060;-89
2023/12/04 09:54:00;;;;;;;136.15;59.38;;;;;;;16.60;36.39;93002.34;4994236;28;20044;-87
2023/12/04 09:56:26;;;;;;;100.45;51.67;;;;;;;16.62;36.26;93002.56;5004602;28;20044;-86
2023/12/04 09:58:59;;;;;;;104.90;53.17;;;;;;;16.60;36.62;92985.97;4981531;28;20032;-87
2023/12/04 10:01:25;;;;;;;117.50;54.58;;;;;;;16.60;36.30;92989.44;4991314;28;20036;-87
2023/12/04 10:03:50;;;;;;;113.30;52.28;;;;;;;16.70;36.16;92973.47;4963645;28;20086;-86
2023/12/04 10:06:19;;;;;;;119.28;52.88;;;;;;;16.61;36.23;92966.34;4968687;28;20058;-88
2023/12/04 10:08:45;;;;;;;107.97;47.05;;;;;;;16.75;35.89;92972.69;4966846;28;21345;-89
2023/12/04 10:11:12;;;;;;;106.95;46.78;;;;;;;16.71;36.55;92964.03;4948414;28;20036;-89
2023/12/04 10:13:39;;;;;;;97.82;48.83;;;;;;;16.68;36.28;92965.06;4958452;28;20595;-88
2023/12/04 10:18:40;;;;;;;107.32;45.97;;;;;;;16.78;36.00;92938.94;5265987;22;20954;-88
2023/12/04 10:21:07;;;;;;;106.35;48.58;;;;;;;16.70;36.54;92933.28;4923744;28;20044;-90
2023/12/04 10:23:45;;;;;;;104.68;45.13;;;;;;;16.69;36.43;92920.16;4950515;28;20042;-91
2023/12/04 10:27:22;;;;;;;105.50;46.42;;;;;;;16.75;36.58;92907.19;4926111;28;20046;-92
2023/12/04 10:29:58;;;;;;;110.72;46.83;;;;;;;16.77;36.35;92910.16;4941906;28;20053;-88
2023/12/04 10:32:26;;;;;;;112.38;45.63;;;;;;;16.76;36.16;92895.75;4920817;28;20037;-90
2023/12/04 10:35:01;;;;;;;148.13;58.10;;;;;;;16.66;36.50;92894.66;4938212;28;20757;-90
2023/12/04 10:37:29;;;;;;;103.40;42.88;;;;;;;16.69;36.58;92885.41;4914062;28;20033;-88
2023/12/04 10:39:54;;;;;;;108.45;42.40;;;;;;;16.82;36.29;92884.06;4925328;28;20036;-90
2023/12/04 10:42:32;;;;;;;114.50;42.53;;;;;;;16.80;36.25;92884.56;4949345;28;20034;-88
2023/12/04 10:44:58;;;;;;;89.47;42.63;;;;;;;16.90;36.33;92871.28;4961574;28;20088;-88
2023/12/04 10:47:24;;;;;;;107.55;47.95;;;;;;;16.74;36.49;92868.25;4937440;28;20075;-88
2023/12/04 10:49:49;;;;;;;120.38;48.88;;;;;;;16.80;36.51;92868.19;4938406;28;20041;-86
2023/12/04 10:52:19;;;;;;;115.15;50.30;;;;;;;16.74;36.86;92865.50;4927170;28;20045;-88
2023/12/04 10:54:53;;;;;;;127.47;50.80;;;;;;;16.79;36.64;92862.00;4926539;28;20033;-89
2023/12/04 10:57:25;;;;;;;106.75;51.08;;;;;;;16.75;36.69;92858.81;4903899;28;20049;-88
2023/12/04 10:59:51;;;;;;;140.45;52.78;;;;;;;16.78;36.70;92846.13;4945433;28;20668;-87
2023/12/04 11:02:19;;;;;;;111.15;49.20;;;;;;;16.84;36.52;92838.63;4923472;28;20037;-86
2023/12/04 11:04:48;;;;;;;118.43;50.53;;;;;;;16.72;37.13;92834.53;4879617;28;21102;-88
2023/12/04 11:07:14;;;;;;;94.82;47.42;;;;;;;16.73;36.68;92820.38;4871022;28;20100;-89
2023/12/04 11:09:42;;;;;;;101.35;46.63;;;;;;;16.70;36.69;92812.47;4856818;28;20061;-89
2023/12/04 11:12:09;;;;;;;99.68;43.97;;;;;;;16.67;36.63;92818.97;4870837;28;20034;-88
2023/12/04 11:14:42;;;;;;;93.13;46.60;;;;;;;16.74;36.58;92797.28;4896316;28;20047;-88
2023/12/04 11:17:11;;;;;;;95.97;52.50;;;;;;;16.79;36.73;92803.94;4878351;28;20162;-89